Time;durP1;ratioP1;P1;durP2;ratioP2;P2;SDS_P1;SDS_P2;PMS_P1;PMS_P2;Temp;Humidity;BMP_temperature;BMP_pressure;BME280_temperature;BME280_humidity;BME280_pressure;Samples;Min_cycle;Max_cycle;Signal;HPM_P1;HPM_P2
2023/11/04 00:01:02;;;;;;;1.25;0.50;;;6.30;70.00;;;;;;5073109;28;20025;-70
2023/11/04 00:03:28;;;;;;;0.73;0.60;;;6.40;69.70;;;;;;5073201;28;20028;-70
2023/11/04 00:05:53;;;;;;;1.17;0.70;;;6.50;69.70;;;;;;5073158;28;20040;-70
2023/11/04 00:08:19;;;;;;;2.20;0.50;;;6.50;69.80;;;;;;5072889;28;20044;-70
2023/11/04 00:10:45;;;;;;;1.23;0.80;;;6.50;69.90;;;;;;5072830;28;20056;-70
2023/11/04 00:13:10;;;;;;;2.20;0.70;;;6.50;70.40;;;;;;5073208;28;20365;-71
2023/11/04 00:15:36;;;;;;;1.17;0.60;;;6.50;70.80;;;;;;5072833;28;20385;-70
2023/11/04 00:18:01;;;;;;;0.65;0.57;;;6.50;71.10;;;;;;5072794;28;20446;-70
2023/11/04 00:20:27;;;;;;;0.73;0.73;;;6.50;71.70;;;;;;5072846;28;20544;-71
2023/11/04 00:22:53;;;;;;;1.45;0.60;;;6.50;71.70;;;;;;5072942;28;20029;-70
2023/11/04 00:25:19;;;;;;;1.48;0.65;;;6.50;71.70;;;;;;5072435;28;20059;-70
2023/11/04 00:27:44;;;;;;;1.73;1.00;;;6.40;71.90;;;;;;5072610;28;20052;-71
2023/11/04 00:30:10;;;;;;;0.95;0.80;;;6.50;72.40;;;;;;5072693;28;20056;-70
2023/11/04 00:32:36;;;;;;;2.97;0.70;;;6.40;72.20;;;;;;5072658;28;20504;-70
2023/11/04 00:35:03;;;;;;;1.77;0.73;;;6.40;72.40;;;;;;5072545;28;20044;-70
2023/11/04 00:37:29;;;;;;;1.73;0.38;;;6.50;71.60;;;;;;5072695;28;20013;-70
2023/11/04 00:39:54;;;;;;;0.50;0.40;;;6.50;71.40;;;;;;5074155;28;20025;-70
2023/11/04 00:42:20;;;;;;;1.70;0.52;;;6.50;71.80;;;;;;5072837;28;20024;-70
2023/11/04 00:44:45;;;;;;;1.50;0.60;;;6.60;72.10;;;;;;5072669;28;20029;-72
2023/11/04 00:47:11;;;;;;;1.08;0.52;;;6.50;72.90;;;;;;5072661;28;20021;-72
2023/11/04 00:49:37;;;;;;;0.63;0.35;;;6.50;72.80;;;;;;5072473;28;20078;-70
2023/11/04 00:52:03;;;;;;;1.25;0.35;;;6.40;73.90;;;;;;5072627;28;20021;-70
2023/11/04 00:54:29;;;;;;;1.02;0.50;;;6.40;74.00;;;;;;5072638;28;20094;-72
2023/11/04 00:56:55;;;;;;;0.60;0.40;;;6.40;73.70;;;;;;5071321;28;20024;-71
2023/11/04 00:59:21;;;;;;;1.55;0.30;;;6.40;74.50;;;;;;5072587;28;20025;-70
2023/11/04 01:01:46;;;;;;;1.05;0.43;;;6.40;74.70;;;;;;5072334;28;20452;-70
2023/11/04 01:04:12;;;;;;;0.82;0.45;;;6.40;74.60;;;;;;5072354;28;20028;-70
2023/11/04 01:06:37;;;;;;;0.30;0.30;;;6.40;74.40;;;;;;5070862;28;20489;-70
2023/11/04 01:09:04;;;;;;;11.50;5.95;;;6.40;74.60;;;;;;5072127;28;20021;-70
2023/11/04 01:11:30;;;;;;;0.65;0.30;;;6.40;74.80;;;;;;5072345;28;20061;-70
2023/11/04 01:13:55;;;;;;;1.50;1.02;;;6.30;75.60;;;;;;5072431;28;20439;-70
2023/11/04 01:16:21;;;;;;;2.78;0.77;;;6.30;75.20;;;;;;5072231;28;20027;-70
2023/11/04 01:18:47;;;;;;;1.20;0.30;;;6.30;75.70;;;;;;5072279;28;20507;-70
2023/11/04 01:21:12;;;;;;;0.60;0.32;;;6.20;75.00;;;;;;5072249;28;20013;-71
2023/11/04 01:23:38;;;;;;;0.47;0.40;;;6.30;75.40;;;;;;5072291;28;20158;-70
2023/11/04 01:26:04;;;;;;;1.30;0.60;;;6.30;75.70;;;;;;5072336;28;20373;-70
2023/11/04 01:28:30;;;;;;;0.30;0.30;;;6.20;76.10;;;;;;5072365;28;20036;-70
2023/11/04 01:30:55;;;;;;;0.55;0.30;;;6.20;76.50;;;;;;5074350;28;20032;-70
2023/11/04 01:33:21;;;;;;;0.93;0.40;;;6.10;75.10;;;;;;5075766;28;20031;-69
2023/11/04 01:35:46;;;;;;;1.95;0.40;;;6.10;75.10;;;;;;5075704;28;20037;-70
2023/11/04 01:38:12;;;;;;;1.95;0.40;;;6.10;75.20;;;;;;5075813;28;20020;-70
2023/11/04 01:40:37;;;;;;;0.55;0.28;;;6.10;75.30;;;;;;5075777;28;20024;-69
2023/11/04 01:43:03;;;;;;;1.95;0.40;;;6.20;75.20;;;;;;5075691;28;20025;-70
2023/11/04 01:45:28;;;;;;;2.20;0.60;;;6.20;75.40;;;;;;5075636;28;20028;-71
2023/11/04 01:47:54;;;;;;;1.48;0.50;;;6.20;75.70;;;;;;5074297;28;20032;-70
2023/11/04 01:50:20;;;;;;;1.80;0.55;;;6.20;76.00;;;;;;5075583;28;20082;-70
2023/11/04 01:52:46;;;;;;;1.10;0.50;;;6.10;76.00;;;;;;5075698;28;20072;-71
2023/11/04 01:55:13;;;;;;;0.30;0.30;;;6.10;76.20;;;;;;5075427;28;20714;-70
2023/11/04 01:57:39;;;;;;;1.63;0.50;;;6.10;76.40;;;;;;5075421;28;20079;-70
2023/11/04 02:00:08;;;;;;;1.80;0.80;;;6.10;76.80;;;;;;5075399;28;20495;-70
2023/11/04 02:02:33;;;;;;;3.00;1.73;;;6.10;77.50;;;;;;5074293;28;20155;-70
2023/11/04 02:05:00;;;;;;;1.15;0.93;;;6.00;78.00;;;;;;5075186;28;20082;-71
2023/11/04 02:07:25;;;;;;;1.98;1.23;;;5.90;78.50;;;;;;5075348;28;20408;-72
2023/11/04 02:09:52;;;;;;;2.35;1.52;;;5.90;78.90;;;;;;5075167;28;20024;-71
2023/11/04 02:12:20;;;;;;;5.25;2.80;;;5.90;79.20;;;;;;5073663;28;20090;-71
2023/11/04 02:14:52;;;;;;;1.83;1.23;;;5.80;79.10;;;;;;5075111;28;20028;-71
2023/11/04 02:17:18;;;;;;;1.10;0.73;;;5.80;79.40;;;;;;5075056;28;20127;-70
2023/11/04 02:19:44;;;;;;;1.00;0.90;;;5.80;79.30;;;;;;5050363;28;20033;-70
2023/11/04 02:22:10;;;;;;;0.77;0.73;;;5.80;79.40;;;;;;5046749;28;20024;-71
2023/11/04 02:24:36;;;;;;;1.52;0.80;;;5.80;79.30;;;;;;5074669;28;20082;-71
2023/11/04 02:27:01;;;;;;;1.30;0.57;;;5.80;79.10;;;;;;5074651;28;20059;-71
2023/11/04 02:29:27;;;;;;;1.73;0.60;;;5.80;79.00;;;;;;5074685;28;20116;-73
2023/11/04 02:31:52;;;;;;;0.65;0.60;;;5.90;78.60;;;;;;5074802;28;20027;-71
2023/11/04 02:34:18;;;;;;;2.78;0.80;;;5.90;78.50;;;;;;5073331;28;20036;-71
2023/11/04 02:36:44;;;;;;;1.05;0.90;;;5.90;78.70;;;;;;5074550;28;20024;-71
2023/11/04 02:39:09;;;;;;;1.70;1.17;;;5.90;78.80;;;;;;5074554;28;20111;-72
2023/11/04 02:41:35;;;;;;;1.10;0.68;;;5.80;79.40;;;;;;5073465;28;20028;-71
2023/11/04 02:44:01;;;;;;;1.88;1.00;;;5.90;79.40;;;;;;5074853;28;20093;-71
2023/11/04 02:46:26;;;;;;;0.82;0.65;;;5.90;79.20;;;;;;5074431;28;20495;-71
2023/11/04 02:48:52;;;;;;;1.95;0.60;;;5.80;77.90;;;;;;5074263;28;20028;-71
2023/11/04 02:51:18;;;;;;;1.15;0.88;;;5.90;78.00;;;;;;5074419;28;20019;-71
2023/11/04 02:53:43;;;;;;;1.00;0.90;;;6.00;77.90;;;;;;5074244;28;20366;-70
2023/11/04 02:56:09;;;;;;;3.00;0.93;;;6.00;78.20;;;;;;5074506;28;20489;-72
2023/11/04 02:58:35;;;;;;;0.88;0.52;;;6.00;77.90;;;;;;5074269;28;20387;-71
2023/11/04 03:01:00;;;;;;;1.52;0.70;;;6.00;78.30;;;;;;5074407;28;20104;-71
2023/11/04 03:03:26;;;;;;;1.25;0.80;;;6.00;78.00;;;;;;5074397;28;20370;-71
2023/11/04 03:05:52;;;;;;;2.80;0.93;;;6.00;78.20;;;;;;5074206;28;20035;-71
2023/11/04 03:08:17;;;;;;;0.90;0.70;;;5.80;79.00;;;;;;5074055;28;20059;-71
2023/11/04 03:10:43;;;;;;;2.33;0.90;;;5.80;79.30;;;;;;5074011;28;20025;-71
2023/11/04 03:13:09;;;;;;;2.90;1.00;;;5.80;79.30;;;;;;5074016;28;20029;-71
2023/11/04 03:15:35;;;;;;;2.85;0.90;;;5.90;79.10;;;;;;5073833;28;20499;-76
2023/11/04 03:18:01;;;;;;;3.88;1.08;;;5.80;79.60;;;;;;5073835;28;20024;-71
2023/11/04 03:20:27;;;;;;;1.15;0.70;;;5.70;80.30;;;;;;5073798;28;20032;-71
2023/11/04 03:22:53;;;;;;;0.88;0.70;;;5.70;80.30;;;;;;5073814;28;20397;-71
2023/11/04 03:25:19;;;;;;;1.27;0.95;;;5.70;80.40;;;;;;5073704;28;20024;-71
2023/11/04 03:27:45;;;;;;;1.67;1.00;;;5.70;80.30;;;;;;5072401;28;20025;-72
2023/11/04 03:30:11;;;;;;;0.88;0.75;;;5.80;80.30;;;;;;5073626;28;20024;-72
2023/11/04 03:32:36;;;;;;;0.80;0.75;;;5.80;80.40;;;;;;5073559;28;20029;-71
2023/11/04 03:35:02;;;;;;;2.40;1.60;;;5.70;80.40;;;;;;5072143;28;20040;-71
2023/11/04 03:37:28;;;;;;;5.35;2.05;;;5.70;80.30;;;;;;5073441;28;20024;-72
2023/11/04 03:39:53;;;;;;;2.50;0.70;;;5.80;80.20;;;;;;5073381;28;20063;-72
2023/11/04 03:42:19;;;;;;;1.20;0.70;;;5.80;79.40;;;;;;5073498;28;20560;-73
2023/11/04 03:44:44;;;;;;;0.85;0.55;;;5.80;79.10;;;;;;5073209;28;20038;-71
2023/11/04 03:47:10;;;;;;;0.95;0.50;;;5.80;79.00;;;;;;5072044;28;20028;-72
2023/11/04 03:49:35;;;;;;;0.80;0.50;;;5.80;79.00;;;;;;5073301;28;20543;-71
2023/11/04 03:52:01;;;;;;;1.67;0.55;;;5.90;78.50;;;;;;5072096;28;20028;-79
2023/11/04 03:54:27;;;;;;;1.95;0.30;;;5.90;78.60;;;;;;5072946;28;20028;-77
2023/11/04 03:56:52;;;;;;;0.82;0.60;;;6.00;77.20;;;;;;5073415;28;20091;-77
2023/11/04 03:59:18;;;;;;;0.75;0.45;;;6.10;77.10;;;;;;5073371;28;20059;-79
2023/11/04 04:01:44;;;;;;;2.80;0.35;;;6.10;77.30;;;;;;5073212;28;20108;-79
2023/11/04 04:04:09;;;;;;;0.35;0.35;;;6.10;77.60;;;;;;5073285;28;20102;-78
2023/11/04 04:06:35;;;;;;;0.82;0.80;;;6.10;77.00;;;;;;5073207;28;20354;-79
2023/11/04 04:09:01;;;;;;;0.50;0.47;;;6.10;77.10;;;;;;5073359;28;20142;-78
2023/11/04 04:11:26;;;;;;;0.50;0.50;;;6.10;77.10;;;;;;5071742;28;20045;-78
2023/11/04 04:13:52;;;;;;;0.65;0.20;;;6.10;77.20;;;;;;5073034;28;20028;-78
2023/11/04 04:16:17;;;;;;;0.55;0.40;;;6.10;76.90;;;;;;5073133;28;20021;-78
2023/11/04 04:18:43;;;;;;;1.13;0.82;;;6.10;77.10;;;;;;5072987;28;20465;-78
2023/11/04 04:21:13;;;;;;;0.82;0.57;;;6.10;77.90;;;;;;5073043;28;20031;-77
2023/11/04 04:23:39;;;;;;;3.15;0.85;;;5.90;78.40;;;;;;5073153;28;20029;-73
2023/11/04 04:26:05;;;;;;;3.00;0.90;;;5.90;78.80;;;;;;5071663;28;20017;-71
2023/11/04 04:28:30;;;;;;;2.08;0.77;;;5.80;79.00;;;;;;5072786;28;20024;-71
2023/11/04 04:30:56;;;;;;;0.75;0.65;;;5.90;79.10;;;;;;5072889;28;20521;-71
2023/11/04 04:33:22;;;;;;;1.17;0.60;;;5.80;79.00;;;;;;5072864;28;20472;-71
2023/11/04 04:35:48;;;;;;;1.08;0.70;;;5.80;78.80;;;;;;5072848;28;20036;-71
2023/11/04 04:38:13;;;;;;;3.17;0.88;;;5.80;78.20;;;;;;5072789;28;20017;-71
2023/11/04 04:40:39;;;;;;;1.67;0.70;;;5.70;78.70;;;;;;5072747;28;20065;-72
2023/11/04 04:43:04;;;;;;;1.50;0.50;;;5.70;78.90;;;;;;5072781;28;20116;-71
2023/11/04 04:45:30;;;;;;;0.63;0.63;;;5.70;78.40;;;;;;5072515;28;20039;-74
2023/11/04 04:47:55;;;;;;;2.70;1.17;;;5.80;79.00;;;;;;5072725;28;20044;-70
2023/11/04 04:50:21;;;;;;;2.90;0.77;;;5.70;79.20;;;;;;5071268;28;20025;-69
2023/11/04 04:52:47;;;;;;;1.27;1.08;;;5.70;79.50;;;;;;5072529;28;20021;-70
2023/11/04 04:55:14;;;;;;;2.00;0.80;;;5.70;79.80;;;;;;5072873;28;20392;-70
2023/11/04 04:57:39;;;;;;;1.33;0.90;;;5.60;80.00;;;;;;5073052;28;20112;-70
2023/11/04 05:00:06;;;;;;;1.60;0.70;;;5.50;80.10;;;;;;5075525;28;20057;-70
2023/11/04 05:02:33;;;;;;;0.60;0.60;;;5.60;79.80;;;;;;5073029;28;20515;-70
2023/11/04 05:04:59;;;;;;;0.82;0.60;;;5.50;80.10;;;;;;5073240;28;20036;-73
2023/11/04 05:07:25;;;;;;;0.85;0.52;;;5.60;79.70;;;;;;5076642;28;20032;-71
2023/11/04 05:09:51;;;;;;;1.85;0.77;;;5.60;79.40;;;;;;5076373;28;20025;-73
2023/11/04 05:12:16;;;;;;;0.65;0.40;;;5.60;79.40;;;;;;5076167;28;20132;-71
2023/11/04 05:14:42;;;;;;;1.63;0.80;;;5.70;79.20;;;;;;5076285;28;20115;-73
2023/11/04 05:17:08;;;;;;;0.55;0.40;;;5.70;79.80;;;;;;5076300;28;20029;-76
2023/11/04 05:19:33;;;;;;;1.65;1.13;;;5.60;78.90;;;;;;5076220;28;20063;-74
2023/11/04 05:21:58;;;;;;;1.45;0.82;;;5.70;78.40;;;;;;5076217;28;20043;-74
2023/11/04 05:24:24;;;;;;;1.00;0.95;;;5.80;78.40;;;;;;5064720;28;20033;-76
2023/11/04 05:26:51;;;;;;;2.55;1.20;;;5.80;78.80;;;;;;5056174;28;20493;-75
2023/11/04 05:29:16;;;;;;;1.60;0.90;;;5.80;78.90;;;;;;5056076;28;20079;-78
2023/11/04 05:31:42;;;;;;;6.32;1.08;;;5.80;79.20;;;;;;5056137;28;20064;-77
2023/11/04 05:34:07;;;;;;;1.25;0.70;;;5.70;80.00;;;;;;5056177;28;20542;-79
2023/11/04 05:36:33;;;;;;;1.30;0.80;;;5.60;80.10;;;;;;5056051;28;20025;-79
2023/11/04 05:38:58;;;;;;;2.13;0.90;;;5.60;80.20;;;;;;5055945;28;20032;-79
2023/11/04 05:41:24;;;;;;;1.33;1.08;;;5.60;80.20;;;;;;5056281;28;20020;-79
2023/11/04 05:43:50;;;;;;;1.40;0.70;;;5.70;80.20;;;;;;5056055;28;20408;-78
2023/11/04 05:46:15;;;;;;;1.63;0.80;;;5.60;80.00;;;;;;5055899;28;20067;-78
2023/11/04 05:48:41;;;;;;;1.13;1.00;;;5.60;80.10;;;;;;5055824;28;20102;-79
2023/11/04 05:51:06;;;;;;;2.17;1.10;;;5.60;80.20;;;;;;5055696;28;20021;-79
2023/11/04 05:53:32;;;;;;;1.45;0.80;;;5.60;80.40;;;;;;5055786;28;20053;-77
2023/11/04 05:55:57;;;;;;;0.90;0.90;;;5.60;80.00;;;;;;5055709;28;20033;-76
2023/11/04 05:58:23;;;;;;;1.00;0.90;;;5.60;79.60;;;;;;5056172;28;20037;-78
2023/11/04 06:00:49;;;;;;;1.13;0.68;;;5.60;80.10;;;;;;5054395;28;20032;-78
2023/11/04 06:03:14;;;;;;;1.50;0.98;;;5.70;80.40;;;;;;5055545;28;20021;-77
2023/11/04 06:05:40;;;;;;;2.20;1.10;;;5.60;80.20;;;;;;5055733;28;20037;-78
2023/11/04 06:08:06;;;;;;;3.20;1.38;;;5.60;80.20;;;;;;5055432;28;20029;-78
2023/11/04 06:10:31;;;;;;;3.33;1.60;;;5.60;80.10;;;;;;5055306;28;20040;-78
2023/11/04 06:12:57;;;;;;;13.35;7.40;;;5.60;79.80;;;;;;5059816;28;20048;-77
2023/11/04 06:15:24;;;;;;;4.25;1.88;;;5.60;79.90;;;;;;5053791;28;20047;-75
2023/11/04 06:17:49;;;;;;;3.08;1.60;;;5.70;79.70;;;;;;5054755;28;20454;-72
2023/11/04 06:20:15;;;;;;;4.40;1.60;;;5.70;79.60;;;;;;5054175;28;20039;-73
2023/11/04 06:22:41;;;;;;;3.28;1.80;;;5.70;79.10;;;;;;5055035;28;20389;-73
2023/11/04 06:25:07;;;;;;;3.88;1.60;;;5.80;78.90;;;;;;5054753;28;20059;-76
2023/11/04 06:27:32;;;;;;;3.20;1.45;;;5.70;78.50;;;;;;5054807;28;20100;-77
2023/11/04 06:29:58;;;;;;;2.92;1.45;;;5.80;78.40;;;;;;5055265;28;20029;-71
2023/11/04 06:32:23;;;;;;;3.17;1.27;;;5.80;78.40;;;;;;5055192;28;20028;-71
2023/11/04 06:34:49;;;;;;;1.52;1.00;;;5.80;78.20;;;;;;5055398;28;20071;-77
2023/11/04 06:37:14;;;;;;;2.38;0.95;;;5.80;78.20;;;;;;5055847;28;20024;-75
2023/11/04 06:39:40;;;;;;;1.20;0.80;;;5.80;78.10;;;;;;5055820;28;20036;-72
2023/11/04 06:42:05;;;;;;;1.80;0.90;;;5.80;78.00;;;;;;5055002;28;20388;-73
2023/11/04 06:44:34;;;;;;;1.52;0.80;;;5.80;77.90;;;;;;5054737;28;20489;-70
2023/11/04 06:47:00;;;;;;;1.40;0.95;;;5.90;78.00;;;;;;5054893;28;20104;-72
2023/11/04 06:49:26;;;;;;;1.30;0.90;;;5.90;78.00;;;;;;5054489;28;20501;-73
2023/11/04 06:51:51;;;;;;;2.55;1.52;;;5.90;78.00;;;;;;5054706;28;20032;-71
2023/11/04 06:54:17;;;;;;;2.67;1.65;;;5.90;78.00;;;;;;5054419;28;20470;-70
2023/11/04 06:56:42;;;;;;;1.52;1.23;;;5.90;78.00;;;;;;5052800;28;20025;-70
2023/11/04 06:59:08;;;;;;;0.98;0.90;;;6.00;77.60;;;;;;5052921;28;20067;-71
2023/11/04 07:01:34;;;;;;;2.40;1.67;;;6.00;77.50;;;;;;5054187;28;20021;-71
2023/11/04 07:03:59;;;;;;;3.28;1.40;;;6.00;78.40;;;;;;5054425;28;20100;-70
2023/11/04 07:06:25;;;;;;;1.27;1.10;;;6.10;77.50;;;;;;5054271;28;20534;-75
2023/11/04 07:08:54;;;;;;;6.68;4.25;;;6.10;77.30;;;;;;5054122;28;20060;-73
2023/11/04 07:11:21;;;;;;;6.47;4.18;;;6.20;77.20;;;;;;5053726;28;20140;-79
2023/11/04 07:13:46;;;;;;;2.10;1.30;;;6.20;77.10;;;;;;5053893;28;20029;-74
2023/11/04 07:16:13;;;;;;;1.15;1.00;;;6.20;77.10;;;;;;5053832;28;20036;-71
2023/11/04 07:18:40;;;;;;;1.92;1.10;;;6.30;77.10;;;;;;5053775;28;20025;-73
2023/11/04 07:21:06;;;;;;;2.42;1.10;;;6.30;76.80;;;;;;5053775;28;20029;-75
2023/11/04 07:23:32;;;;;;;2.75;1.58;;;6.30;76.80;;;;;;5053864;28;20074;-73
2023/11/04 07:25:57;;;;;;;1.40;1.10;;;6.30;76.70;;;;;;5053876;28;20100;-72
2023/11/04 07:28:23;;;;;;;1.63;1.33;;;6.50;76.50;;;;;;5051617;28;20024;-72
2023/11/04 07:30:52;;;;;;;2.15;1.60;;;6.50;76.30;;;;;;5052462;28;20534;-71
2023/11/04 07:33:19;;;;;;;1.63;1.27;;;6.60;75.90;;;;;;5053568;28;20017;-71
2023/11/04 07:35:45;;;;;;;1.63;1.02;;;6.70;75.40;;;;;;5053468;28;20021;-70
2023/11/04 07:38:12;;;;;;;1.90;1.05;;;6.80;75.00;;;;;;5052155;28;20047;-72
2023/11/04 07:40:38;;;;;;;1.17;1.05;;;6.80;74.80;;;;;;5053342;28;20534;-72
2023/11/04 07:43:05;;;;;;;1.55;1.30;;;7.00;74.20;;;;;;5053388;28;20115;-73
2023/11/04 07:45:32;;;;;;;1.55;0.95;;;7.10;74.20;;;;;;5053415;28;20071;-74
2023/11/04 07:47:57;;;;;;;1.58;1.25;;;7.30;73.70;;;;;;5053371;28;20583;-71
2023/11/04 07:50:23;;;;;;;1.63;1.17;;;7.40;72.50;;;;;;5053294;28;20025;-71
2023/11/04 07:52:49;;;;;;;1.88;1.10;;;7.40;72.30;;;;;;5053222;28;20075;-72
2023/11/04 07:55:15;;;;;;;2.58;1.77;;;7.40;72.60;;;;;;5053022;28;20086;-73
2023/11/04 07:57:40;;;;;;;4.20;1.60;;;7.50;77.90;;;;;;5053118;28;20508;-73
2023/11/04 08:00:10;;;;;;;1.95;1.35;;;7.70;75.70;;;;;;5057268;28;20024;-73
2023/11/04 08:02:40;;;;;;;1.05;0.95;;;7.90;72.70;;;;;;5052265;28;20025;-74
2023/11/04 08:05:09;;;;;;;1.52;1.10;;;8.00;71.40;;;;;;5053096;28;20535;-73
2023/11/04 08:07:36;;;;;;;2.22;0.88;;;8.10;71.00;;;;;;5053127;28;20029;-73
2023/11/04 08:10:04;;;;;;;1.35;1.25;;;8.20;71.00;;;;;;5052993;28;20025;-73
2023/11/04 08:12:29;;;;;;;2.88;0.98;;;8.20;70.00;;;;;;5052675;28;20493;-72
2023/11/04 08:14:55;;;;;;;1.50;0.73;;;8.10;69.90;;;;;;5052718;28;20045;-73
2023/11/04 08:17:21;;;;;;;1.02;1.02;;;8.10;70.00;;;;;;5052704;28;20091;-73
2023/11/04 08:19:47;;;;;;;1.75;1.10;;;8.00;71.20;;;;;;5052870;28;20430;-73
2023/11/04 08:22:14;;;;;;;1.15;0.90;;;8.10;71.30;;;;;;5051478;28;20025;-75
2023/11/04 08:24:40;;;;;;;1.10;1.00;;;8.40;70.30;;;;;;5051569;28;20044;-73
2023/11/04 08:27:06;;;;;;;2.15;0.75;;;8.50;69.20;;;;;;5052752;28;20043;-73
2023/11/04 08:29:32;;;;;;;1.42;0.90;;;8.70;68.40;;;;;;5053128;28;20528;-75
2023/11/04 08:31:58;;;;;;;1.75;0.85;;;8.70;68.00;;;;;;5052894;28;20334;-74
2023/11/04 08:34:24;;;;;;;1.45;0.75;;;8.90;68.10;;;;;;5052660;28;20025;-73
2023/11/04 08:36:50;;;;;;;0.63;0.63;;;8.90;66.00;;;;;;5052702;28;20083;-72
2023/11/04 08:39:16;;;;;;;0.90;0.63;;;9.00;66.40;;;;;;5054014;28;20025;-71
2023/11/04 08:41:44;;;;;;;0.77;0.60;;;9.10;66.10;;;;;;5057007;28;20033;-73
2023/11/04 08:44:11;;;;;;;1.92;0.80;;;9.20;65.80;;;;;;5056922;28;20476;-71
2023/11/04 08:46:37;;;;;;;0.57;0.57;;;9.20;65.30;;;;;;5055424;28;20502;-74
2023/11/04 08:49:03;;;;;;;2.40;0.70;;;8.90;65.30;;;;;;5055794;28;20025;-75
2023/11/04 08:51:28;;;;;;;1.70;0.73;;;8.80;65.50;;;;;;5055168;28;20492;-74
2023/11/04 08:53:54;;;;;;;0.65;0.45;;;8.70;64.90;;;;;;5056398;28;20385;-73
2023/11/04 08:56:20;;;;;;;1.27;0.60;;;8.60;63.50;;;;;;5056629;28;20103;-71
2023/11/04 08:58:46;;;;;;;2.85;1.33;;;8.60;64.40;;;;;;5056468;28;20037;-73
2023/11/04 09:01:14;;;;;;;0.77;0.52;;;8.50;65.40;;;;;;5056461;28;20032;-73
2023/11/04 09:03:40;;;;;;;0.75;0.60;;;8.50;67.10;;;;;;5055315;28;20444;-72
2023/11/04 09:06:07;;;;;;;2.28;0.80;;;8.40;66.60;;;;;;5056344;28;20473;-73
2023/11/04 09:08:33;;;;;;;0.95;0.50;;;8.30;67.70;;;;;;5056440;28;20032;-71
2023/11/04 09:10:58;;;;;;;0.70;0.60;;;8.30;67.40;;;;;;5056264;28;20466;-71
2023/11/04 09:13:24;;;;;;;3.25;0.73;;;8.30;67.90;;;;;;5056978;28;20549;-74
2023/11/04 09:15:50;;;;;;;1.70;0.80;;;8.30;67.50;;;;;;5055674;28;20425;-75
2023/11/04 09:18:15;;;;;;;1.35;0.70;;;8.20;68.30;;;;;;5057492;28;20386;-71
2023/11/04 09:20:42;;;;;;;1.10;0.70;;;8.20;67.90;;;;;;5056284;28;20051;-72
2023/11/04 09:23:07;;;;;;;1.98;0.45;;;8.20;68.10;;;;;;5056370;28;20049;-71
2023/11/04 09:25:34;;;;;;;3.05;0.70;;;8.10;68.70;;;;;;5054839;28;20021;-72
2023/11/04 09:27:59;;;;;;;1.52;0.98;;;8.00;68.90;;;;;;5056763;28;20416;-71
2023/11/04 09:30:25;;;;;;;1.33;0.80;;;8.10;69.50;;;;;;5054591;28;20021;-73
2023/11/04 09:32:50;;;;;;;1.13;0.75;;;8.00;69.90;;;;;;5056409;28;20033;-73
2023/11/04 09:35:16;;;;;;;1.10;0.73;;;8.10;69.70;;;;;;5054622;28;20486;-76
2023/11/04 09:37:43;;;;;;;1.98;0.88;;;8.20;69.50;;;;;;5038609;28;20018;-74
2023/11/04 09:40:10;;;;;;;3.17;1.00;;;8.30;68.70;;;;;;5055729;28;20021;-72
2023/11/04 09:42:36;;;;;;;0.70;0.70;;;8.20;68.40;;;;;;5055772;28;20029;-74
2023/11/04 09:45:06;;;;;;;3.13;2.08;;;8.20;68.30;;;;;;5055593;28;20114;-76
2023/11/04 09:47:32;;;;;;;1.00;0.70;;;8.20;68.00;;;;;;5055803;28;20470;-79
2023/11/04 09:49:58;;;;;;;6.43;0.90;;;8.20;66.80;;;;;;5054547;28;20044;-78
2023/11/04 09:52:25;;;;;;;0.70;0.52;;;8.30;66.90;;;;;;5054835;28;20032;-76
2023/11/04 09:54:52;;;;;;;1.80;0.80;;;8.20;67.10;;;;;;5055280;28;20029;-77
2023/11/04 09:57:19;;;;;;;2.17;1.00;;;8.30;67.20;;;;;;5055519;28;20079;-78
2023/11/04 09:59:45;;;;;;;1.02;0.65;;;8.40;66.80;;;;;;5055548;28;20031;-79
2023/11/04 10:02:11;;;;;;;0.47;0.47;;;8.40;65.50;;;;;;5055464;28;20381;-75
2023/11/04 10:04:38;;;;;;;1.20;0.68;;;8.30;65.50;;;;;;5055174;28;20044;-74
2023/11/04 10:07:05;;;;;;;2.08;0.60;;;8.20;65.90;;;;;;5054588;28;20107;-74
2023/11/04 10:09:32;;;;;;;0.30;0.30;;;8.10;65.70;;;;;;5054716;28;20029;-74
2023/11/04 10:11:58;;;;;;;1.90;0.77;;;8.20;65.10;;;;;;5054826;28;20052;-78
2023/11/04 10:14:27;;;;;;;1.48;0.80;;;8.20;66.60;;;;;;5055367;28;20079;-75
2023/11/04 10:17:07;;;;;;;1.08;0.38;;;8.20;65.50;;;;;;5055206;28;20025;-80
2023/11/04 10:19:37;;;;;;;1.10;0.60;;;8.20;65.50;;;;;;5056111;28;20086;-75
2023/11/04 10:22:14;;;;;;;1.10;0.70;;;8.20;65.60;;;;;;5056738;28;20104;-77
2023/11/04 10:24:40;;;;;;;0.68;0.57;;;8.20;66.00;;;;;;5055062;28;20097;-77
2023/11/04 10:27:06;;;;;;;0.63;0.60;;;8.20;65.00;;;;;;5054303;28;20493;-74
2023/11/04 10:29:33;;;;;;;0.55;0.55;;;8.20;64.40;;;;;;5054933;28;20052;-74
2023/11/04 10:32:03;;;;;;;1.50;1.10;;;8.20;63.30;;;;;;5054821;28;20061;-81
2023/11/04 10:34:32;;;;;;;0.85;0.32;;;8.30;62.40;;;;;;5053967;28;20029;-82
2023/11/04 10:36:59;;;;;;;0.93;0.30;;;8.40;61.70;;;;;;5057565;28;20025;-77
2023/11/04 10:39:26;;;;;;;0.35;0.30;;;8.40;60.80;;;;;;5053563;28;20058;-79
2023/11/04 10:42:26;;;;;;;0.32;0.30;;;8.50;60.30;;;;;;5054980;28;20124;-78
2023/11/04 10:44:57;;;;;;;0.50;0.50;;;8.50;59.80;;;;;;5013482;28;20434;-79
2023/11/04 10:47:39;;;;;;;1.75;0.60;;;8.60;59.30;;;;;;5047761;28;20037;-77
2023/11/04 10:50:46;;;;;;;1.15;0.60;;;8.60;61.40;;;;;;5055354;28;20022;-79
2023/11/04 10:53:38;;;;;;;1.73;0.70;;;8.70;60.80;;;;;;5053148;28;20041;-79
2023/11/04 10:56:06;;;;;;;0.47;0.30;;;8.70;61.90;;;;;;5054650;28;20040;-81
2023/11/04 10:58:48;;;;;;;2.33;0.60;;;8.80;59.80;;;;;;5060490;28;20031;-75
2023/11/04 11:01:14;;;;;;;0.75;0.40;;;8.80;59.40;;;;;;5067441;28;20040;-77
2023/11/04 11:03:42;;;;;;;1.65;0.40;;;8.80;60.80;;;;;;5060389;28;20064;-73
2023/11/04 11:06:11;;;;;;;0.90;0.40;;;8.80;60.80;;;;;;5064984;28;20088;-73
2023/11/04 11:08:39;;;;;;;1.75;0.70;;;8.90;61.70;;;;;;5058010;28;20052;-78
2023/11/04 11:11:14;;;;;;;0.90;0.57;;;9.00;60.30;;;;;;5053918;28;20099;-80
2023/11/04 11:13:42;;;;;;;0.70;0.43;;;9.30;59.10;;;;;;5054752;28;20128;-80
2023/11/04 11:16:08;;;;;;;0.65;0.45;;;9.50;58.60;;;;;;5054109;28;20041;-80
2023/11/04 11:18:34;;;;;;;1.10;0.70;;;9.70;56.80;;;;;;5054709;28;20051;-77
2023/11/04 11:21:09;;;;;;;1.58;0.45;;;9.70;57.20;;;;;;5053116;28;20079;-77
2023/11/04 11:23:34;;;;;;;0.77;0.52;;;9.70;56.70;;;;;;5054187;28;20397;-81
2023/11/04 11:26:05;;;;;;;1.92;0.38;;;9.80;57.00;;;;;;5054440;28;20037;-77
2023/11/04 11:28:36;;;;;;;2.25;0.70;;;9.60;56.30;;;;;;5054094;28;20385;-79
2023/11/04 11:31:02;;;;;;;1.10;0.32;;;9.50;56.80;;;;;;5054225;28;20024;-82
2023/11/04 11:33:28;;;;;;;1.85;0.55;;;9.20;57.60;;;;;;5054380;28;20025;-77
2023/11/04 11:36:05;;;;;;;0.73;0.52;;;9.20;58.00;;;;;;5052732;28;20485;-80
2023/11/04 11:38:33;;;;;;;0.85;0.52;;;9.20;58.10;;;;;;5053781;28;20032;-76
2023/11/04 11:41:15;;;;;;;1.20;0.60;;;9.10;56.80;;;;;;5052333;28;20033;-78
2023/11/04 11:43:43;;;;;;;1.25;0.50;;;9.00;57.70;;;;;;5053574;28;20112;-76
2023/11/04 11:46:08;;;;;;;0.77;0.55;;;9.00;57.20;;;;;;5053962;28;20025;-74
2023/11/04 11:48:41;;;;;;;1.15;0.50;;;9.00;57.10;;;;;;5053938;28;20025;-74
2023/11/04 11:51:11;;;;;;;1.67;0.50;;;9.00;57.10;;;;;;5052860;28;20039;-77
2023/11/04 11:53:42;;;;;;;1.27;0.80;;;9.00;56.90;;;;;;5056907;28;20021;-72
2023/11/04 11:56:08;;;;;;;0.75;0.43;;;9.10;62.60;;;;;;5054457;28;20032;-75
2023/11/04 11:58:34;;;;;;;1.38;0.60;;;9.20;58.00;;;;;;5052160;28;20470;-83
2023/11/04 12:01:04;;;;;;;2.53;0.90;;;9.50;63.40;;;;;;5053708;28;20025;-82
2023/11/04 12:03:30;;;;;;;1.30;0.73;;;9.60;58.30;;;;;;5053644;28;20575;-82
2023/11/04 12:05:57;;;;;;;1.00;0.52;;;9.70;56.60;;;;;;5058286;28;20036;-81
2023/11/04 12:08:23;;;;;;;0.90;0.60;;;9.90;61.30;;;;;;5053453;28;20013;-78
2023/11/04 12:10:49;;;;;;;1.50;0.60;;;10.00;56.90;;;;;;5052392;28;20106;-76
2023/11/04 12:13:14;;;;;;;2.10;0.50;;;10.00;54.80;;;;;;5051434;28;20029;-79
2023/11/04 12:15:44;;;;;;;1.25;0.50;;;9.90;54.30;;;;;;5052071;28;20393;-79
2023/11/04 12:18:11;;;;;;;3.10;0.60;;;9.50;55.60;;;;;;5051567;28;20024;-78
2023/11/04 12:20:40;;;;;;;1.38;1.02;;;9.20;56.80;;;;;;5053044;28;20031;-79
2023/11/04 12:23:06;;;;;;;3.85;2.13;;;9.10;57.90;;;;;;5053310;28;20017;-78
2023/11/04 12:25:32;;;;;;;1.15;0.60;;;8.90;58.60;;;;;;5051863;28;20084;-80
2023/11/04 12:28:01;;;;;;;1.35;0.85;;;8.80;59.20;;;;;;5051985;28;20037;-76
2023/11/04 12:30:28;;;;;;;1.48;0.60;;;8.80;60.50;;;;;;5053258;28;20166;-72
2023/11/04 12:32:56;;;;;;;2.15;0.77;;;8.70;61.00;;;;;;5052950;28;20028;-77
2023/11/04 12:35:22;;;;;;;0.90;0.47;;;8.70;60.30;;;;;;5052952;28;20083;-77
2023/11/04 12:37:49;;;;;;;1.92;1.15;;;8.80;60.30;;;;;;5052887;28;20061;-79
2023/11/04 12:40:17;;;;;;;1.73;0.98;;;8.80;60.90;;;;;;5053223;28;20043;-82
2023/11/04 12:42:45;;;;;;;1.00;0.75;;;8.80;60.30;;;;;;5051607;28;20060;-80
2023/11/04 12:45:11;;;;;;;0.90;0.70;;;8.70;59.40;;;;;;5051924;28;20029;-77
2023/11/04 12:47:41;;;;;;;0.80;0.70;;;8.70;59.20;;;;;;5051785;28;20057;-80
2023/11/04 12:50:08;;;;;;;0.55;0.45;;;8.60;60.00;;;;;;5053196;28;20021;-81
2023/11/04 12:52:34;;;;;;;1.90;0.70;;;8.50;60.60;;;;;;5053209;28;20025;-79
2023/11/04 12:55:00;;;;;;;1.90;0.80;;;8.40;62.00;;;;;;5053030;28;20040;-78